Time;durP1;ratioP1;P1;durP2;ratioP2;P2;SDS_P1;SDS_P2;PMS_P1;PMS_P2;Temp;Humidity;BMP_temperature;BMP_pressure;BME280_temperature;BME280_humidity;BME280_pressure;Samples;Min_cycle;Max_cycle;Signal;HPM_P1;HPM_P2
2022/04/29 00:01:03;;;;;;;10.10;8.20;;;;;;;16.37;51.01;102254.03;5055524;28;20048;-61
2022/04/29 00:03:30;;;;;;;10.98;8.35;;;;;;;16.31;51.18;102257.84;5043279;28;20056;-62
2022/04/29 00:05:57;;;;;;;13.27;8.38;;;;;;;16.25;51.33;102256.44;5055946;28;20044;-62
2022/04/29 00:08:24;;;;;;;9.85;8.13;;;;;;;16.18;51.37;102256.88;5044944;28;20084;-62
2022/04/29 00:10:51;;;;;;;10.65;8.73;;;;;;;16.11;51.45;102262.50;5054485;28;20081;-62
2022/04/29 00:13:19;;;;;;;9.50;7.88;;;;;;;16.06;51.83;102253.09;5054832;28;20049;-62
2022/04/29 00:15:46;;;;;;;11.98;8.05;;;;;;;16.02;51.61;102263.00;5054593;28;20083;-62
2022/04/29 00:18:12;;;;;;;11.10;8.20;;;;;;;15.87;51.78;102269.13;5054764;28;20520;-62
2022/04/29 00:20:39;;;;;;;9.73;8.48;;;;;;;15.86;51.99;102264.78;5054193;28;20053;-61
2022/04/29 00:23:07;;;;;;;13.90;8.43;;;;;;;15.87;51.96;102269.13;5046404;28;20128;-62
2022/04/29 00:25:35;;;;;;;11.32;9.13;;;;;;;15.82;51.88;102275.53;5054540;28;20049;-61
2022/04/29 00:28:03;;;;;;;11.05;7.93;;;;;;;15.85;52.19;102279.81;5054317;28;20086;-62
2022/04/29 00:30:30;;;;;;;11.07;8.50;;;;;;;15.81;52.32;102281.75;5054299;28;20049;-62
2022/04/29 00:32:57;;;;;;;10.18;8.45;;;;;;;15.81;52.78;102284.41;5053376;28;20080;-62
2022/04/29 00:35:24;;;;;;;10.18;8.90;;;;;;;15.82;52.86;102278.19;5054415;28;20083;-61
2022/04/29 00:37:54;;;;;;;9.15;7.85;;;;;;;15.82;52.85;102280.84;5054221;28;20076;-62
2022/04/29 00:40:24;;;;;;;10.52;8.30;;;;;;;15.80;52.81;102287.13;5042021;28;20061;-62
2022/04/29 00:42:51;;;;;;;12.20;9.00;;;;;;;15.75;53.12;102279.41;5054025;28;20560;-61
2022/04/29 00:45:19;;;;;;;10.40;8.27;;;;;;;15.72;53.02;102271.66;5054262;28;20037;-63
2022/04/29 00:47:47;;;;;;;12.88;9.10;;;;;;;15.76;52.75;102275.00;5054126;28;20084;-62
2022/04/29 00:50:16;;;;;;;9.82;8.35;;;;;;;15.77;52.99;102277.56;5053620;28;20081;-62
2022/04/29 00:52:45;;;;;;;11.77;8.45;;;;;;;15.78;52.50;102273.09;5054020;28;20087;-61
2022/04/29 00:55:13;;;;;;;9.23;7.70;;;;;;;15.83;52.64;102274.59;5049783;28;20045;-62
2022/04/29 00:57:51;;;;;;;11.75;8.10;;;;;;;15.87;52.31;102263.84;5034181;28;20084;-62
2022/04/29 01:00:18;;;;;;;12.23;8.30;;;;;;;15.91;52.17;102255.66;5034082;28;20077;-62
2022/04/29 01:02:48;;;;;;;9.75;7.53;;;;;;;15.94;51.59;102265.22;5033900;28;20045;-61
2022/04/29 01:05:18;;;;;;;10.13;7.32;;;;;;;15.96;51.62;102260.69;5046198;28;20045;-62
2022/04/29 01:07:46;;;;;;;9.20;6.88;;;;;;;16.00;51.02;102263.06;5053731;28;20520;-61
2022/04/29 01:10:14;;;;;;;8.98;7.00;;;;;;;16.02;50.77;102262.16;5053687;28;20107;-62
2022/04/29 01:12:43;;;;;;;8.85;7.22;;;;;;;16.02;50.67;102260.34;5052936;28;20440;-61
2022/04/29 01:15:14;;;;;;;9.55;6.85;;;;;;;16.02;50.77;102257.69;5043616;28;20056;-61
2022/04/29 01:17:43;;;;;;;8.15;7.07;;;;;;;16.02;50.66;102255.03;5053391;28;20077;-62
2022/04/29 01:20:12;;;;;;;8.60;6.75;;;;;;;16.05;50.46;102254.03;5052878;28;20585;-61
2022/04/29 01:22:39;;;;;;;9.85;7.30;;;;;;;16.07;50.17;102263.59;5048995;28;20083;-61
2022/04/29 01:25:06;;;;;;;8.43;6.72;;;;;;;16.03;50.29;102259.41;5041178;28;20044;-62
2022/04/29 01:27:33;;;;;;;9.80;6.93;;;;;;;16.04;49.74;102258.47;5048439;28;20080;-62
2022/04/29 01:30:08;;;;;;;8.15;6.32;;;;;;;16.07;49.48;102255.63;5048347;28;20091;-62
2022/04/29 01:32:36;;;;;;;;;;;;;;;16.02;49.44;102255.03;5053445;28;20080;-62
2022/04/29 01:35:04;;;;;;;7.68;6.53;;;;;;;16.06;49.67;102253.09;5047301;28;19968;-62
2022/04/29 01:37:30;;;;;;;9.70;6.43;;;;;;;16.02;49.47;102252.41;5045295;28;20045;-61
2022/04/29 01:39:57;;;;;;;8.77;6.07;;;;;;;16.01;49.13;102256.00;5052927;28;20045;-62
2022/04/29 01:42:24;;;;;;;6.40;5.22;;;;;;;16.03;48.70;102255.91;5053158;28;20049;-62
2022/04/29 01:44:53;;;;;;;6.10;4.93;;;;;;;16.06;48.51;102255.72;5042131;28;20406;-62
2022/04/29 01:47:20;;;;;;;5.53;5.03;;;;;;;16.05;48.30;102243.44;5053089;28;20045;-62
2022/04/29 01:49:47;;;;;;;5.78;4.30;;;;;;;16.04;48.30;102242.59;5052419;28;20094;-62
2022/04/29 01:52:14;;;;;;;5.65;4.40;;;;;;;16.08;47.66;102244.13;5050968;28;20041;-62
2022/04/29 01:54:40;;;;;;;4.53;4.00;;;;;;;16.09;47.67;102237.03;5052900;28;20087;-62
2022/04/29 01:57:08;;;;;;;5.47;3.83;;;;;;;16.12;47.03;102244.81;5052546;28;20076;-62
2022/04/29 01:59:38;;;;;;;4.00;3.58;;;;;;;16.11;46.98;102241.31;5051667;28;20500;-61
2022/04/29 02:02:06;;;;;;;7.15;4.13;;;;;;;16.14;46.67;102249.06;5049679;28;20580;-61
2022/04/29 02:04:36;;;;;;;8.73;3.95;;;;;;;16.17;46.42;102240.09;5039207;28;20055;-61
2022/04/29 02:07:05;;;;;;;5.25;3.83;;;;;;;16.19;46.12;102240.88;5052662;28;20049;-62
2022/04/29 02:09:32;;;;;;;7.97;4.25;;;;;;;16.20;46.06;102241.72;5052642;28;20095;-62
2022/04/29 02:12:05;;;;;;;5.03;3.80;;;;;;;16.19;45.94;102242.66;5052538;28;20158;-61
2022/04/29 02:14:32;;;;;;;5.25;4.03;;;;;;;16.15;46.10;102237.53;5052812;28;20111;-61
2022/04/29 02:16:59;;;;;;;6.88;3.95;;;;;;;16.14;45.80;102238.47;5044900;28;20037;-61
2022/04/29 02:19:27;;;;;;;5.45;3.75;;;;;;;16.14;46.13;102229.69;5049450;28;20045;-61
2022/04/29 02:21:53;;;;;;;5.75;4.10;;;;;;;16.15;45.82;102240.19;5052268;28;20057;-61
2022/04/29 02:24:20;;;;;;;5.35;3.55;;;;;;;16.12;46.18;102232.41;5052271;28;20076;-61
2022/04/29 02:26:47;;;;;;;5.50;4.07;;;;;;;16.11;45.75;102233.38;5052168;28;20088;-61
2022/04/29 02:29:13;;;;;;;4.93;3.88;;;;;;;16.13;45.84;102222.69;5052365;28;20102;-61
2022/04/29 02:31:40;;;;;;;5.30;3.85;;;;;;;16.15;45.71;102218.13;5051547;28;20088;-61
2022/04/29 02:34:06;;;;;;;5.38;3.85;;;;;;;16.12;45.80;102218.31;5051935;28;20137;-61
2022/04/29 02:36:33;;;;;;;7.05;3.85;;;;;;;16.08;45.77;102222.94;5050306;28;20072;-61
2022/04/29 02:39:02;;;;;;;5.70;3.80;;;;;;;16.08;45.73;102222.94;5050966;28;20049;-61
2022/04/29 02:41:29;;;;;;;5.68;4.13;;;;;;;16.06;45.58;102226.59;5051995;28;20087;-61
2022/04/29 02:43:55;;;;;;;6.72;4.25;;;;;;;16.05;45.59;102223.13;5051907;28;20083;-61
2022/04/29 02:46:22;;;;;;;5.00;4.22;;;;;;;16.04;45.57;102224.06;5051946;28;20282;-62
2022/04/29 02:48:49;;;;;;;8.38;4.22;;;;;;;16.07;45.42;102226.50;5052131;28;20081;-61
2022/04/29 02:51:16;;;;;;;5.93;4.20;;;;;;;16.05;45.19;102219.59;5040546;28;20563;-61
2022/04/29 02:53:43;;;;;;;7.10;4.40;;;;;;;16.07;45.51;102212.44;5051397;28;20091;-61
2022/04/29 02:56:10;;;;;;;6.50;3.88;;;;;;;16.05;45.24;102207.22;5051852;28;20048;-61
2022/04/29 02:58:37;;;;;;;4.57;3.80;;;;;;;16.08;45.06;102208.84;5051764;28;20084;-62
2022/04/29 03:01:03;;;;;;;6.50;4.13;;;;;;;16.08;45.17;102208.84;5051600;28;20387;-61
2022/04/29 03:03:31;;;;;;;4.57;3.95;;;;;;;16.08;45.30;102212.34;5047639;28;20120;-61
2022/04/29 03:05:58;;;;;;;8.77;4.20;;;;;;;16.06;45.06;102216.00;5045815;28;20500;-61
2022/04/29 03:08:24;;;;;;;5.90;4.15;;;;;;;16.07;44.98;102215.06;5049018;28;20095;-63
2022/04/29 03:10:51;;;;;;;6.20;3.90;;;;;;;16.04;44.98;102217.91;5048521;28;20063;-62
2022/04/29 03:13:17;;;;;;;6.88;4.25;;;;;;;16.07;45.01;102220.38;5048303;28;20049;-61
2022/04/29 03:15:44;;;;;;;4.90;4.00;;;;;;;16.04;45.25;102217.91;5048322;28;20041;-61
2022/04/29 03:18:23;;;;;;;5.57;4.47;;;;;;;16.03;45.58;102210.91;5048519;28;20049;-61
2022/04/29 03:20:53;;;;;;;5.53;4.22;;;;;;;16.03;45.37;102214.38;5045427;28;20053;-61
2022/04/29 03:23:20;;;;;;;5.88;4.15;;;;;;;16.01;45.80;102216.28;5048432;28;20041;-61
2022/04/29 03:25:47;;;;;;;7.80;4.57;;;;;;;15.99;45.99;102211.06;5048565;28;20085;-61
2022/04/29 03:28:15;;;;;;;6.18;4.40;;;;;;;15.97;46.23;102210.31;5048430;28;20482;-61
2022/04/29 03:30:42;;;;;;;8.35;4.60;;;;;;;15.95;46.50;102206.03;5048163;28;20497;-61
2022/04/29 03:33:09;;;;;;;10.82;4.93;;;;;;;15.88;46.97;102205.50;5048064;28;20053;-61
2022/04/29 03:35:45;;;;;;;5.00;4.50;;;;;;;15.85;47.22;102211.00;5048103;28;20085;-61
2022/04/29 03:38:12;;;;;;;6.25;4.70;;;;;;;15.79;47.98;102204.19;5035539;28;20409;-62
2022/04/29 03:40:38;;;;;;;7.50;4.43;;;;;;;15.77;48.22;102202.56;5048248;28;20048;-61
2022/04/29 03:43:05;;;;;;;7.35;4.78;;;;;;;15.75;48.43;102200.00;5051179;28;20045;-62
2022/04/29 03:45:32;;;;;;;4.97;3.92;;;;;;;15.73;48.71;102204.56;5052082;28;20048;-61
2022/04/29 03:47:59;;;;;;;9.05;4.70;;;;;;;15.80;48.58;102202.41;5051946;28;20076;-61
2022/04/29 03:50:28;;;;;;;8.55;5.13;;;;;;;15.79;48.11;102206.84;5051776;28;20084;-61
2022/04/29 03:52:57;;;;;;;6.63;4.50;;;;;;;15.82;48.12;102206.72;5051082;28;20104;-61
2022/04/29 03:55:26;;;;;;;7.97;4.50;;;;;;;15.83;47.90;102204.91;5049786;28;20076;-61
2022/04/29 03:57:53;;;;;;;7.25;4.38;;;;;;;15.86;47.58;102212.69;5049954;28;20098;-62
2022/04/29 04:00:21;;;;;;;5.30;3.97;;;;;;;15.87;47.10;102208.25;5047659;28;20444;-61
2022/04/29 04:02:48;;;;;;;5.75;3.90;;;;;;;15.89;46.68;102212.50;5043165;28;20084;-62
2022/04/29 04:05:20;;;;;;;8.93;3.95;;;;;;;15.93;46.65;102219.34;5044937;28;20045;-61
2022/04/29 04:07:46;;;;;;;7.00;3.70;;;;;;;15.93;46.37;102213.19;5051299;28;20075;-62
2022/04/29 04:10:13;;;;;;;6.40;3.63;;;;;;;15.93;45.98;102216.69;5049108;28;20045;-61
2022/04/29 04:12:48;;;;;;;5.18;3.92;;;;;;;15.92;46.32;102225.59;5048965;28;20134;-61
2022/04/29 04:15:17;;;;;;;6.88;4.32;;;;;;;15.91;46.57;102225.66;5051518;28;20053;-61
2022/04/29 04:17:45;;;;;;;8.43;3.95;;;;;;;15.89;46.64;102225.75;5049574;28;20045;-61
2022/04/29 04:20:14;;;;;;;5.55;3.85;;;;;;;15.87;46.68;102232.06;5042338;28;20587;-61
2022/04/29 04:22:41;;;;;;;7.10;3.40;;;;;;;15.86;47.07;102233.00;5051270;28;20417;-61
2022/04/29 04:25:10;;;;;;;10.93;4.18;;;;;;;15.85;47.30;102234.81;5051162;28;20049;-62
2022/04/29 04:27:37;;;;;;;13.55;5.05;;;;;;;15.85;47.19;102232.16;5043229;28;20045;-61
2022/04/29 04:30:05;;;;;;;7.72;3.88;;;;;;;15.86;47.39;102233.88;5051381;28;20076;-61
2022/04/29 04:32:39;;;;;;;8.23;4.13;;;;;;;15.89;47.57;102235.50;5050693;28;20091;-61
2022/04/29 04:35:07;;;;;;;6.63;3.92;;;;;;;15.91;47.82;102231.81;5050896;28;20048;-62
2022/04/29 04:37:34;;;;;;;5.72;3.85;;;;;;;15.94;47.85;102239.59;5051069;28;20045;-62
2022/04/29 04:40:04;;;;;;;4.70;3.08;;;;;;;15.96;47.76;102235.06;5050617;28;20452;-62
2022/04/29 04:42:31;;;;;;;5.50;3.65;;;;;;;16.00;47.87;102241.91;5050968;28;20258;-62
2022/04/29 04:44:57;;;;;;;5.25;3.53;;;;;;;15.99;47.52;102242.00;5041705;28;20524;-62
2022/04/29 04:47:24;;;;;;;7.40;4.10;;;;;;;16.01;47.66;102240.13;5050924;28;20122;-62
2022/04/29 04:49:51;;;;;;;4.72;3.28;;;;;;;16.04;47.42;102225.84;5050422;28;20569;-62
2022/04/29 04:52:17;;;;;;;6.13;3.83;;;;;;;16.07;47.32;102238.91;5036030;28;20053;-61
2022/04/29 04:54:44;;;;;;;5.63;3.60;;;;;;;16.08;46.93;102235.34;5033701;28;20592;-62
2022/04/29 04:57:11;;;;;;;5.95;3.85;;;;;;;16.11;46.70;102243.09;5034191;28;20084;-61
2022/04/29 04:59:37;;;;;;;7.40;4.80;;;;;;;16.11;46.80;102232.50;5034196;28;20053;-61
2022/04/29 05:02:04;;;;;;;4.82;3.00;;;;;;;16.29;46.99;102231.47;5037118;28;20508;-61
2022/04/29 05:04:32;;;;;;;4.90;2.85;;;;;;;16.65;48.78;102232.06;5036763;28;20041;-61
2022/04/29 05:06:58;;;;;;;9.15;5.47;;;;;;;16.59;48.64;102237.72;5050081;28;20045;-62
2022/04/29 05:09:25;;;;;;;6.95;4.60;;;;;;;16.49;47.95;102246.22;5035786;28;20045;-64
2022/04/29 05:11:52;;;;;;;6.88;4.28;;;;;;;16.45;47.01;102242.00;5039559;28;20107;-62
2022/04/29 05:14:32;;;;;;;6.95;4.00;;;;;;;16.45;46.46;102244.66;5030313;28;20120;-62
2022/04/29 05:16:58;;;;;;;5.93;3.72;;;;;;;16.42;46.04;102249.31;5030236;28;20486;-63
2022/04/29 05:19:25;;;;;;;8.25;3.80;;;;;;;16.38;45.59;102239.81;5042299;28;20050;-62
2022/04/29 05:21:57;;;;;;;4.95;3.70;;;;;;;16.35;45.58;102240.00;5029995;28;20520;-61
2022/04/29 05:24:34;;;;;;;4.07;3.28;;;;;;;16.32;45.75;102243.69;5029852;28;20053;-62
2022/04/29 05:27:03;;;;;;;6.50;3.50;;;;;;;16.34;45.84;102247.09;5030197;28;20049;-62
2022/04/29 05:29:30;;;;;;;5.05;3.55;;;;;;;16.39;45.41;102250.34;5029919;28;20041;-61
2022/04/29 05:31:56;;;;;;;5.18;3.47;;;;;;;16.43;45.63;102249.22;5029914;28;20089;-61
2022/04/29 05:34:23;;;;;;;4.85;3.42;;;;;;;16.47;45.47;102250.75;5029708;28;20099;-62
2022/04/29 05:36:50;;;;;;;5.95;3.40;;;;;;;16.55;45.40;102252.94;5030080;28;20491;-62
2022/04/29 05:42:14;;;;;;;7.05;3.35;;;;;;;16.68;45.34;102253.09;5035409;28;20041;-61
2022/04/29 05:44:41;;;;;;;5.47;3.65;;;;;;;16.78;45.07;102254.25;5038551;28;20505;-62
2022/04/29 05:47:08;;;;;;;10.23;3.90;;;;;;;16.88;44.88;102254.56;5045272;28;20072;-63
2022/04/29 05:49:35;;;;;;;7.75;4.20;;;;;;;16.94;44.45;102256.03;5047854;28;20049;-61
2022/04/29 05:52:03;;;;;;;20.65;4.15;;;;;;;17.12;44.97;102249.63;5046226;28;20665;-62
2022/04/29 05:54:31;;;;;;;13.75;4.50;;;;;;;17.42;46.66;102255.78;5038603;28;20041;-62
2022/04/29 05:56:59;;;;;;;5.90;3.50;;;;;;;17.36;46.53;102265.00;5046172;28;20048;-62
2022/04/29 05:59:26;;;;;;;7.65;3.97;;;;;;;17.36;46.02;102261.50;5040581;28;20041;-62
2022/04/29 06:01:53;;;;;;;5.47;4.03;;;;;;;17.39;45.00;102263.97;5040007;28;20100;-62
2022/04/29 06:04:20;;;;;;;4.38;3.55;;;;;;;17.39;44.53;102256.84;5035007;28;20501;-63
2022/04/29 06:06:47;;;;;;;6.10;3.70;;;;;;;17.33;44.34;102262.56;5047868;28;20771;-62
2022/04/29 06:09:14;;;;;;;5.57;3.63;;;;;;;17.44;43.60;102259.22;5048438;28;20061;-62
2022/04/29 06:11:41;;;;;;;4.93;3.28;;;;;;;17.60;43.34;102265.28;5049395;28;20128;-62
2022/04/29 06:14:07;;;;;;;4.53;3.17;;;;;;;17.71;42.50;102261.09;5048993;28;20048;-62
2022/04/29 06:16:34;;;;;;;7.70;3.22;;;;;;;17.80;41.82;102265.81;5049215;28;20076;-62
2022/04/29 06:19:00;;;;;;;6.60;2.70;;;;;;;17.89;41.21;102259.97;5048882;28;20049;-62
2022/04/29 06:21:27;;;;;;;4.28;2.88;;;;;;;17.98;40.41;102266.53;5048492;28;20110;-62
2022/04/29 06:23:54;;;;;;;5.53;2.60;;;;;;;18.08;39.83;102261.44;5048112;28;20140;-62
2022/04/29 06:26:20;;;;;;;3.53;2.50;;;;;;;18.16;39.68;102272.44;5046806;28;20467;-62
2022/04/29 06:28:47;;;;;;;4.85;2.55;;;;;;;18.25;39.14;102273.66;5048648;28;20094;-62
2022/04/29 06:31:14;;;;;;;4.55;2.80;;;;;;;18.33;38.96;102270.50;5048537;28;20583;-62
2022/04/29 06:33:41;;;;;;;4.70;2.45;;;;;;;18.42;38.56;102269.91;5048841;28;20060;-62
2022/04/29 06:36:08;;;;;;;4.38;2.97;;;;;;;18.51;37.90;102260.47;5048024;28;20076;-63
2022/04/29 06:38:34;;;;;;;5.07;2.80;;;;;;;18.55;37.46;102264.63;5048642;28;20076;-62
2022/04/29 06:41:01;;;;;;;6.18;2.92;;;;;;;18.63;36.93;102264.97;5047393;28;20049;-62
2022/04/29 06:43:30;;;;;;;4.65;2.38;;;;;;;18.70;36.08;102263.63;5047640;28;20483;-62
2022/04/29 06:45:57;;;;;;;4.35;2.40;;;;;;;18.80;36.09;102276.28;5048430;28;20055;-62
2022/04/29 06:48:25;;;;;;;6.10;2.40;;;;;;;18.85;35.51;102261.72;5048373;28;20053;-62
2022/04/29 06:50:51;;;;;;;7.88;2.30;;;;;;;18.90;34.66;102264.09;5047897;28;20128;-62
2022/04/29 06:53:18;;;;;;;4.30;2.30;;;;;;;18.96;34.55;102270.78;5048652;28;20045;-62
2022/04/29 06:55:44;;;;;;;3.58;2.17;;;;;;;19.02;33.79;102270.38;5048375;28;20497;-62
2022/04/29 06:58:11;;;;;;;4.78;2.10;;;;;;;19.08;33.32;102270.84;5047328;28;20553;-62
2022/04/29 07:00:40;;;;;;;4.93;2.33;;;;;;;19.12;32.94;102271.44;5048442;28;20048;-62
2022/04/29 07:03:06;;;;;;;5.72;2.35;;;;;;;19.19;32.72;102269.25;5039613;28;20060;-62
2022/04/29 07:05:36;;;;;;;5.10;1.83;;;;;;;19.27;32.20;102277.53;5043092;28;20056;-62
2022/04/29 07:08:04;;;;;;;2.08;1.60;;;;;;;19.33;32.18;102270.94;5048528;28;20053;-62
2022/04/29 07:10:30;;;;;;;8.13;2.30;;;;;;;19.41;31.68;102268.59;5048429;28;20079;-62
2022/04/29 07:12:57;;;;;;;5.20;2.05;;;;;;;19.49;31.85;102274.25;5048147;28;20081;-62
2022/04/29 07:15:24;;;;;;;5.97;1.90;;;;;;;19.56;31.52;102272.81;5037002;28;20100;-61
2022/04/29 07:17:50;;;;;;;4.90;1.83;;;;;;;19.65;30.96;102275.81;5045250;28;20073;-62
2022/04/29 07:20:18;;;;;;;2.50;1.88;;;;;;;19.75;30.74;102275.03;5044447;28;20049;-62
2022/04/29 07:22:44;;;;;;;5.57;1.60;;;;;;;19.79;30.00;102270.34;5049002;28;20053;-62
2022/04/29 07:25:12;;;;;;;4.20;1.98;;;;;;;19.88;29.67;102277.72;5045295;28;20088;-62
2022/04/29 07:27:40;;;;;;;7.15;2.00;;;;;;;19.98;29.00;102261.91;5052121;28;20045;-62
2022/04/29 07:30:08;;;;;;;3.25;1.85;;;;;;;20.08;28.73;102264.75;5052045;28;20114;-62
2022/04/29 07:32:34;;;;;;;3.47;1.58;;;;;;;20.14;28.27;102260.81;5038181;28;20080;-62
2022/04/29 07:43:17;;;;;;;2.75;1.73;;;;;;;20.46;27.69;102269.06;5037022;28;20090;-61
2022/04/29 07:45:44;;;;;;;2.72;1.67;;;;;;;20.53;27.29;102264.13;5034613;28;20057;-62
2022/04/29 07:48:11;;;;;;;8.15;2.00;;;;;;;20.55;27.67;102263.03;5036397;28;20077;-62
2022/04/29 07:50:39;;;;;;;3.97;1.90;;;;;;;20.69;27.72;102264.66;5033231;28;20045;-62
2022/04/29 07:53:06;;;;;;;5.10;2.00;;;;;;;20.82;27.33;102280.66;5034913;28;20092;-62
2022/04/29 07:55:33;;;;;;;4.60;1.95;;;;;;;20.82;27.68;102271.78;5037842;28;20049;-62
2022/04/29 07:57:59;;;;;;;3.00;1.58;;;;;;;20.86;27.85;102274.13;5034787;28;20081;-62
2022/04/29 08:00:26;;;;;;;3.47;1.60;;;;;;;21.00;27.66;102267.72;5037707;28;20080;-61
2022/04/29 08:02:52;;;;;;;4.90;2.00;;;;;;;21.10;27.11;102264.34;5034729;28;20104;-61
2022/04/29 08:05:19;;;;;;;4.95;2.20;;;;;;;21.20;26.90;102271.53;5044294;28;20048;-61
2022/04/29 08:07:47;;;;;;;4.22;1.95;;;;;;;21.30;26.92;102265.44;5048947;28;20080;-61
2022/04/29 08:10:14;;;;;;;3.35;1.50;;;;;;;21.28;27.03;102270.06;5051561;28;20647;-62
2022/04/29 08:12:40;;;;;;;4.10;1.65;;;;;;;;;;5045750;28;20046;-62
2022/04/29 08:15:09;;;;;;;4.40;1.88;;;;;;;21.45;26.53;102271.41;5047655;28;20041;-61
2022/04/29 08:17:38;;;;;;;4.43;1.80;;;;;;;21.63;26.10;102261.13;5045143;28;20091;-62
2022/04/29 08:20:06;;;;;;;5.20;1.83;;;;;;;21.74;26.47;102269.13;5047845;28;20140;-61
2022/04/29 08:22:33;;;;;;;4.78;1.40;;;;;;;21.78;26.01;102262.56;5044556;28;20077;-62
2022/04/29 08:25:00;;;;;;;2.75;1.50;;;;;;;21.92;25.57;102263.28;5045139;28;20044;-62
2022/04/29 08:27:28;;;;;;;5.80;1.67;;;;;;;21.88;25.70;102264.47;5037682;28;20059;-62
2022/04/29 08:29:57;;;;;;;4.18;2.00;;;;;;;22.04;25.38;102258.75;5041180;28;20040;-61
2022/04/29 08:32:24;;;;;;;3.05;1.48;;;;;;;22.12;25.26;102251.81;5048851;28;20536;-62
2022/04/29 08:34:51;;;;;;;3.00;1.77;;;;;;;22.28;25.30;102253.19;5046870;28;20041;-62
2022/04/29 08:37:21;;;;;;;5.40;2.22;;;;;;;22.40;25.13;102249.56;5049453;28;20045;-62
2022/04/29 08:39:48;;;;;;;2.83;1.90;;;;;;;22.43;25.16;102254.63;5047869;28;20056;-62
2022/04/29 08:42:18;;;;;;;2.70;2.08;;;;;;;22.56;25.22;102242.91;5049148;28;20106;-62
2022/04/29 08:44:45;;;;;;;5.72;2.03;;;;;;;22.52;25.11;102250.34;5040875;28;20049;-62
2022/04/29 08:47:13;;;;;;;4.28;1.63;;;;;;;22.77;24.89;102240.25;5045137;28;20049;-62
2022/04/29 08:49:40;;;;;;;3.13;1.70;;;;;;;22.92;24.92;102246.09;5039538;28;20068;-62
2022/04/29 08:52:09;;;;;;;3.72;2.28;;;;;;;23.08;24.63;102245.66;5045109;28;20135;-62
2022/04/29 09:00:14;;;;;;;2.45;1.95;;;;;;;23.43;24.85;102233.72;5042065;28;20056;-62
2022/04/29 09:02:49;;;;;;;3.35;2.00;;;;;;;23.56;24.45;102230.81;5038931;28;20053;-62
2022/04/29 09:05:16;;;;;;;3.13;1.80;;;;;;;23.77;24.00;102234.25;5043075;28;20076;-62
2022/04/29 09:07:53;;;;;;;1.58;1.40;;;;;;;23.85;24.13;102224.69;5050235;28;20539;-63
2022/04/29 09:10:21;;;;;;;4.22;1.65;;;;;;;23.91;23.94;102225.00;5050406;28;20505;-62
2022/04/29 09:12:48;;;;;;;4.15;1.90;;;;;;;24.06;23.77;102216.53;5050279;28;20045;-61
2022/04/29 09:15:16;;;;;;;1.95;1.58;;;;;;;24.23;23.75;102215.00;5045314;28;20462;-61
2022/04/29 09:17:47;;;;;;;3.10;1.80;;;;;;;24.15;23.55;102214.84;5048575;28;20071;-64
2022/04/29 09:20:19;;;;;;;19.02;2.80;;;;;;;24.34;23.22;102214.00;5046676;28;20123;-64
2022/04/29 09:22:50;;;;;;;3.00;1.70;;;;;;;24.37;23.23;102208.38;5050177;28;20095;-63
2022/04/29 09:25:17;;;;;;;3.78;1.98;;;;;;;24.42;22.90;102203.41;5042243;28;20044;-64
2022/04/29 09:28:00;;;;;;;2.33;1.65;;;;;;;24.52;22.74;102204.25;5046270;28;20122;-64
2022/04/29 09:30:40;;;;;;;2.22;1.85;;;;;;;24.79;22.74;102202.66;5045094;28;20045;-64
2022/04/29 09:33:19;;;;;;;2.88;1.67;;;;;;;24.99;22.34;102198.09;5046258;28;20052;-64
2022/04/29 09:35:48;;;;;;;2.70;2.30;;;;;;;25.03;22.51;102195.97;5044761;28;20073;-65
2022/04/29 09:41:02;;;;;;;2.53;2.10;;;;;;;25.34;22.19;102187.63;5043404;28;20045;-64
2022/04/29 09:43:42;;;;;;;3.83;2.00;;;;;;;25.48;22.00;102172.88;5045110;28;20045;-63
2022/04/29 09:46:10;;;;;;;2.85;1.90;;;;;;;25.63;22.17;102168.66;5043376;28;20485;-62
2022/04/29 09:48:57;;;;;;;4.32;2.00;;;;;;;25.79;22.02;102172.50;5039524;28;20045;-63
2022/04/29 09:51:51;;;;;;;2.97;1.70;;;;;;;25.92;21.96;102165.75;5045502;28;20088;-62
2022/04/29 09:54:28;;;;;;;3.38;2.40;;;;;;;25.97;21.85;102159.09;5046189;28;20084;-63
2022/04/29 09:57:15;;;;;;;2.72;2.30;;;;;;;26.08;21.68;102170.47;5043680;28;20049;-64
2022/04/29 09:59:47;;;;;;;2.83;2.00;;;;;;;26.11;21.49;102163.09;5043062;28;20045;-63
2022/04/29 10:02:18;;;;;;;3.22;2.42;;;;;;;26.15;21.54;102156.41;5042316;28;20048;-63
2022/04/29 10:04:46;;;;;;;2.72;2.10;;;;;;;26.32;21.12;102155.53;5046518;28;20056;-63
2022/04/29 10:07:16;;;;;;;4.72;2.40;;;;;;;26.47;21.11;102141.50;5043461;28;20042;-63
2022/04/29 10:09:48;;;;;;;3.38;2.65;;;;;;;26.56;21.19;102145.94;5043815;28;20049;-63
2022/04/29 10:12:16;;;;;;;3.78;2.25;;;;;;;26.73;21.26;102141.53;5037455;28;20504;-63
2022/04/29 10:14:45;;;;;;;2.80;2.30;;;;;;;26.85;21.06;102139.41;5048268;28;20128;-63
2022/04/29 10:22:58;;;;;;;3.75;2.40;;;;;;;27.11;20.60;102130.41;5039425;28;20111;-63
2022/04/29 10:25:27;;;;;;;3.47;2.35;;;;;;;27.16;20.82;102120.84;5045332;28;20108;-63
2022/04/29 10:27:54;;;;;;;3.05;2.30;;;;;;;27.33;20.17;102118.19;5038343;28;20049;-63
2022/04/29 10:30:35;;;;;;;3.10;2.42;;;;;;;27.38;20.28;102119.38;5038791;28;20041;-63
2022/04/29 10:33:02;;;;;;;2.70;2.30;;;;;;;27.52;20.19;102112.53;5038591;28;20053;-63
2022/04/29 10:35:45;;;;;;;3.65;1.90;;;;;;;27.73;20.11;102103.13;5039519;28;20048;-63
2022/04/29 10:38:12;;;;;;;4.93;2.50;;;;;;;27.76;20.52;102099.25;5039246;28;20051;-63
2022/04/29 10:40:39;;;;;;;3.50;2.20;;;;;;;27.86;20.04;102095.38;5039070;28;20049;-62
2022/04/29 10:43:10;;;;;;;2.72;2.15;;;;;;;27.79;19.98;102096.19;5037044;28;20121;-63
2022/04/29 10:46:04;;;;;;;4.95;2.40;;;;;;;27.98;19.70;102097.72;5040349;28;20077;-63
2022/04/29 10:48:38;;;;;;;4.05;2.67;;;;;;;28.10;19.89;102092.84;5040197;28;20604;-63
2022/04/29 10:51:18;;;;;;;6.23;2.97;;;;;;;28.28;19.57;102085.41;5035596;28;20045;-63
2022/04/29 10:53:50;;;;;;;2.50;2.30;;;;;;;28.11;19.77;102078.34;5036876;28;20086;-63
2022/04/29 10:56:32;;;;;;;3.88;3.20;;;;;;;28.01;19.59;102079.34;5038307;28;20049;-62
2022/04/29 10:59:12;;;;;;;4.03;2.33;;;;;;;28.31;19.47;102071.53;5029708;28;20099;-63
2022/04/29 11:01:40;;;;;;;3.08;2.72;;;;;;;28.44;19.55;102067.47;5031919;28;20080;-63
2022/04/29 11:04:30;;;;;;;6.05;2.42;;;;;;;28.39;19.53;102064.44;5033339;28;20094;-63
2022/04/29 11:06:57;;;;;;;4.25;2.90;;;;;;;28.47;19.51;102059.88;5048219;28;20175;-63
2022/04/29 11:09:46;;;;;;;5.18;2.33;;;;;;;28.59;19.55;102057.63;5048323;28;20072;-63
2022/04/29 11:12:33;;;;;;;5.88;2.80;;;;;;;28.27;19.75;102058.59;5042573;28;20064;-66
2022/04/29 11:15:20;;;;;;;5.65;2.90;;;;;;;28.12;20.14;102053.03;5027620;28;20087;-66
2022/04/29 11:17:47;;;;;;;4.45;2.28;;;;;;;28.20;20.25;102053.00;5033156;28;20041;-67
2022/04/29 11:20:22;;;;;;;4.20;3.03;;;;;;;28.31;19.85;102044.53;5034339;28;20049;-66
2022/04/29 11:25:48;;;;;;;2.80;2.55;;;;;;;27.87;20.19;102034.13;5034994;28;20053;-63
2022/04/29 11:28:16;;;;;;;4.15;2.63;;;;;;;28.00;20.08;102025.53;5047708;28;20114;-63
2022/04/29 11:30:43;;;;;;;5.38;3.08;;;;;;;27.86;20.19;102025.22;5035744;28;20107;-63
2022/04/29 11:33:10;;;;;;;5.07;3.10;;;;;;;27.76;19.87;102016.47;5039176;28;20085;-62
2022/04/29 11:35:37;;;;;;;5.50;2.70;;;;;;;27.78;20.13;102008.19;5034827;28;20080;-63
2022/04/29 11:38:03;;;;;;;4.18;2.80;;;;;;;27.92;20.27;102010.22;5043284;28;20050;-62
2022/04/29 11:40:30;;;;;;;4.72;3.10;;;;;;;28.02;19.90;102002.78;5047778;28;20072;-63
2022/04/29 11:42:57;;;;;;;3.35;2.67;;;;;;;27.86;20.06;102000.09;5047553;28;20456;-62
2022/04/29 11:45:24;;;;;;;4.40;2.50;;;;;;;28.10;19.79;101995.69;5046692;28;20484;-65
2022/04/29 11:47:50;;;;;;;5.68;2.67;;;;;;;28.11;20.24;102006.34;5047066;28;20486;-63
2022/04/29 11:50:30;;;;;;;3.22;2.40;;;;;;;28.25;19.98;101991.28;5033727;28;20068;-63
2022/04/29 11:53:05;;;;;;;4.53;2.53;;;;;;;28.38;20.18;101988.03;5029891;28;20046;-63
2022/04/29 11:55:32;;;;;;;;;;;;;;;28.39;19.69;101994.25;5030961;28;20053;-63
2022/04/29 11:57:58;;;;;;;4.40;2.75;;;;;;;28.39;20.40;101983.44;5030447;28;19921;-63
2022/04/29 12:00:27;;;;;;;2.65;2.28;;;;;;;28.31;20.03;101987.03;5032915;28;20137;-64